createdAt,value
2022-10-12T00:01:00.830Z,6.77
2022-10-12T00:03:27.432Z,7.90
2022-10-12T00:06:04.672Z,7.97
2022-10-12T00:08:31.526Z,7.17
2022-10-12T00:10:58.305Z,7.47
2022-10-12T00:13:25.660Z,6.90
2022-10-12T00:15:52.083Z,6.27
2022-10-12T00:18:18.932Z,6.13
2022-10-12T00:20:45.466Z,7.53
2022-10-12T00:23:12.146Z,7.13
2022-10-12T00:25:40.153Z,8.50
2022-10-12T00:28:07.638Z,9.80
2022-10-12T00:30:34.851Z,7.60
2022-10-12T00:33:01.213Z,8.53
2022-10-12T00:35:30.720Z,7.13
2022-10-12T00:37:57.124Z,10.30
2022-10-12T00:40:23.887Z,8.50
2022-10-12T00:42:50.326Z,5.03
2022-10-12T00:45:16.977Z,10.73
2022-10-12T00:47:49.739Z,6.10
2022-10-12T00:50:20.900Z,6.83
2022-10-12T00:53:09.504Z,6.60
2022-10-12T00:55:40.368Z,11.27
2022-10-12T00:58:08.378Z,5.73
2022-10-12T01:00:37.602Z,7.50
2022-10-12T01:03:06.623Z,9.27
2022-10-12T01:05:33.698Z,8.77
2022-10-12T01:08:02.556Z,7.00
2022-10-12T01:10:29.054Z,9.57
2022-10-12T01:12:55.542Z,8.53
2022-10-12T01:15:26.321Z,7.37
2022-10-12T01:18:02.221Z,6.20
2022-10-12T01:20:55.977Z,8.20
2022-10-12T01:24:05.548Z,7.17
2022-10-12T01:26:59.174Z,7.90
2022-10-12T01:29:37.961Z,8.97
2022-10-12T01:32:16.434Z,7.73
2022-10-12T01:35:34.880Z,8.20
2022-10-12T01:38:10.908Z,8.70
2022-10-12T01:40:42.085Z,8.60
2022-10-12T01:43:08.849Z,10.23
2022-10-12T01:45:35.325Z,6.63
2022-10-12T01:48:02.771Z,7.60
2022-10-12T01:50:42.336Z,7.03
2022-10-12T01:53:21.057Z,7.93
2022-10-12T01:56:10.072Z,6.90
2022-10-12T01:58:58.448Z,5.93
2022-10-12T02:01:30.951Z,6.40
2022-10-12T02:04:17.570Z,6.70
2022-10-12T02:07:05.668Z,7.50
2022-10-12T02:09:36.269Z,7.87
2022-10-12T02:12:18.486Z,7.90
2022-10-12T02:14:56.973Z,5.00
2022-10-12T02:17:23.821Z,6.63
2022-10-12T02:19:57.097Z,9.07
2022-10-12T02:22:26.823Z,7.83
2022-10-12T02:24:57.762Z,7.33
2022-10-12T02:27:26.481Z,5.63
2022-10-12T02:29:53.666Z,8.67
2022-10-12T02:32:38.121Z,8.07
2022-10-12T02:35:10.298Z,6.20
2022-10-12T02:37:42.660Z,5.23
2022-10-12T02:40:24.139Z,8.23
2022-10-12T02:43:10.295Z,6.70
2022-10-12T02:45:40.946Z,5.23
2022-10-12T02:48:11.131Z,5.47
2022-10-12T02:50:38.478Z,4.67
2022-10-12T02:53:05.927Z,4.93
2022-10-12T02:55:32.359Z,6.90
2022-10-12T02:57:58.788Z,9.17
2022-10-12T03:00:25.206Z,13.37
2022-10-12T03:02:51.612Z,4.17
2022-10-12T03:05:18.047Z,5.60
2022-10-12T03:07:44.489Z,4.67
2022-10-12T03:10:11.651Z,6.20
2022-10-12T03:12:37.992Z,7.70
2022-10-12T03:15:04.897Z,6.20
2022-10-12T03:17:31.275Z,7.77
2022-10-12T03:19:57.673Z,7.40
2022-10-12T03:22:24.153Z,4.27
2022-10-12T03:24:50.516Z,5.83
2022-10-12T03:27:16.957Z,6.00
2022-10-12T03:29:44.062Z,5.33
2022-10-12T03:32:10.494Z,4.53
2022-10-12T03:34:37.046Z,5.80
2022-10-12T03:37:03.514Z,5.43
2022-10-12T03:39:29.965Z,4.70
2022-10-12T03:41:56.424Z,6.57
2022-10-12T03:44:22.866Z,7.27
2022-10-12T03:46:49.272Z,4.93
2022-10-12T03:49:15.624Z,5.63
2022-10-12T03:51:42.074Z,6.23
2022-10-12T03:54:08.472Z,6.43
2022-10-12T03:56:34.949Z,4.87
2022-10-12T03:59:01.430Z,8.27
2022-10-12T04:01:27.861Z,8.77
2022-10-12T04:03:54.314Z,7.87
2022-10-12T04:06:20.698Z,4.77
2022-10-12T04:08:50.624Z,6.00
2022-10-12T04:11:17.548Z,5.13
2022-10-12T04:13:44.305Z,5.50
2022-10-12T04:16:10.714Z,5.03
2022-10-12T04:18:37.141Z,4.83
2022-10-12T04:21:09.850Z,5.40
2022-10-12T04:23:36.338Z,8.10
2022-10-12T04:26:02.812Z,7.57
2022-10-12T04:28:29.394Z,5.37
2022-10-12T04:30:55.788Z,4.53
2022-10-12T04:33:22.271Z,6.73
2022-10-12T04:35:48.646Z,4.90
2022-10-12T04:38:15.130Z,5.93
2022-10-12T04:40:49.463Z,5.43
2022-10-12T04:43:16.755Z,7.27
2022-10-12T04:45:43.226Z,8.33
2022-10-12T04:48:09.604Z,4.50
2022-10-12T04:50:36.447Z,5.07
2022-10-12T04:53:02.946Z,8.60
2022-10-12T04:55:29.373Z,6.40
2022-10-12T04:57:55.806Z,6.33
2022-10-12T05:00:22.198Z,4.77
2022-10-12T05:02:48.758Z,6.87
2022-10-12T05:05:15.203Z,7.13
2022-10-12T05:07:41.614Z,6.53
2022-10-12T05:10:08.356Z,6.40
2022-10-12T05:12:34.860Z,7.87
2022-10-12T05:15:01.486Z,4.53
2022-10-12T05:17:28.180Z,6.10
2022-10-12T05:19:54.602Z,5.93
2022-10-12T05:22:21.018Z,6.37
2022-10-12T05:24:52.746Z,7.07
2022-10-12T05:27:20.910Z,7.27
2022-10-12T05:29:47.713Z,10.23
2022-10-12T05:32:14.531Z,4.53
2022-10-12T05:34:42.297Z,10.00
2022-10-12T05:37:08.701Z,5.47
2022-10-12T05:39:36.750Z,4.67
2022-10-12T05:42:03.969Z,7.10
2022-10-12T05:44:30.780Z,6.77
2022-10-12T05:46:57.199Z,7.00
2022-10-12T05:49:23.774Z,7.07
2022-10-12T05:51:50.237Z,5.27
2022-10-12T05:54:16.626Z,8.13
2022-10-12T05:56:43.261Z,6.37
2022-10-12T05:59:11.289Z,5.57
2022-10-12T06:01:38.332Z,8.87
2022-10-12T06:04:04.899Z,6.63
2022-10-12T06:06:31.363Z,7.33
2022-10-12T06:08:57.746Z,7.87
2022-10-12T06:11:24.524Z,7.17
2022-10-12T06:13:50.910Z,10.03
2022-10-12T06:16:17.301Z,7.73
2022-10-12T06:18:43.712Z,7.27
2022-10-12T06:23:56.550Z,8.70
2022-10-12T06:26:23.330Z,8.00
2022-10-12T06:28:49.754Z,6.80
2022-10-12T06:31:16.253Z,7.03
2022-10-12T06:33:42.667Z,7.33
2022-10-12T06:36:09.118Z,4.60
2022-10-12T06:38:36.403Z,9.07
2022-10-12T06:41:02.875Z,7.87
2022-10-12T06:43:29.333Z,6.60
2022-10-12T06:46:00.686Z,7.30
2022-10-12T06:48:27.469Z,5.33
2022-10-12T06:50:54.805Z,5.73
2022-10-12T06:53:22.038Z,5.83
2022-10-12T06:55:49.060Z,6.77
2022-10-12T06:58:15.452Z,6.67
2022-10-12T07:00:41.924Z,5.90
2022-10-12T07:03:12.428Z,6.40
2022-10-12T07:05:38.846Z,7.97
2022-10-12T07:08:05.352Z,7.10
2022-10-12T07:10:31.779Z,7.50
2022-10-12T07:12:58.216Z,6.37
2022-10-12T07:15:24.590Z,5.53
2022-10-12T07:17:51.101Z,5.60
2022-10-12T07:20:17.512Z,6.53
2022-10-12T07:22:44.544Z,5.43
2022-10-12T07:25:10.918Z,7.07
2022-10-12T07:27:37.746Z,8.13
2022-10-12T07:30:05.018Z,7.53
2022-10-12T07:32:31.400Z,7.70
2022-10-12T07:34:57.800Z,5.33
2022-10-12T07:37:24.282Z,5.10
2022-10-12T07:39:50.761Z,5.13
2022-10-12T07:42:19.504Z,5.80
2022-10-12T07:44:46.367Z,6.33
2022-10-12T07:47:12.819Z,5.53
2022-10-12T07:49:39.193Z,6.57
2022-10-12T07:52:05.737Z,7.67
2022-10-12T07:54:32.725Z,8.00
2022-10-12T07:56:59.436Z,6.73
2022-10-12T07:59:25.980Z,9.10
2022-10-12T08:01:52.792Z,8.73
2022-10-12T08:04:19.198Z,7.10
2022-10-12T08:06:45.806Z,10.37
2022-10-12T08:09:12.181Z,8.87
2022-10-12T08:11:40.212Z,7.10
2022-10-12T08:14:12.128Z,11.63
2022-10-12T08:16:38.822Z,6.47
2022-10-12T08:19:05.305Z,8.90
2022-10-12T08:21:31.744Z,8.83
2022-10-12T08:23:58.834Z,6.43
2022-10-12T08:26:25.210Z,8.03
2022-10-12T08:28:52.463Z,6.63
2022-10-12T08:31:19.365Z,5.17
2022-10-12T08:33:45.817Z,8.67
2022-10-12T08:36:13.061Z,8.63
2022-10-12T08:38:39.846Z,8.43
2022-10-12T08:41:47.166Z,7.47
2022-10-12T08:44:19.756Z,6.67
2022-10-12T08:46:46.532Z,8.40
2022-10-12T08:49:22.885Z,6.67
2022-10-12T08:51:59.619Z,8.17
2022-10-12T08:54:32.429Z,7.70
2022-10-12T08:56:59.821Z,6.63
2022-10-12T08:59:28.422Z,5.47
2022-10-12T09:02:07.039Z,5.23
2022-10-12T09:05:21.647Z,8.55
2022-10-12T09:07:57.251Z,6.05
2022-10-12T09:11:08.544Z,6.47
2022-10-12T09:13:46.718Z,5.87
2022-10-12T09:16:34.274Z,5.77
2022-10-12T09:19:15.235Z,10.00
2022-10-12T09:21:42.754Z,5.82
2022-10-12T09:24:16.150Z,5.95
2022-10-12T09:26:44.635Z,7.82
2022-10-12T09:29:29.694Z,7.88
2022-10-12T09:32:17.657Z,6.90
2022-10-12T09:34:46.451Z,5.68
2022-10-12T09:37:19.466Z,8.68
2022-10-12T09:39:46.412Z,6.88
2022-10-12T09:42:12.876Z,8.18
2022-10-12T09:44:49.251Z,8.35
2022-10-12T09:47:24.456Z,9.50
2022-10-12T09:49:52.796Z,8.73
2022-10-12T09:52:44.737Z,6.68
2022-10-12T09:55:11.699Z,7.57
2022-10-12T09:57:41.904Z,7.45
2022-10-12T10:00:31.160Z,7.20
2022-10-12T10:02:59.025Z,11.80
2022-10-12T10:05:33.237Z,7.45
2022-10-12T10:08:14.937Z,10.52
2022-10-12T10:10:55.503Z,10.00
2022-10-12T10:13:24.680Z,8.07
2022-10-12T10:16:03.446Z,10.25
2022-10-12T10:18:36.036Z,10.25
2022-10-12T10:21:06.340Z,12.13
2022-10-12T10:23:40.007Z,9.52
2022-10-12T10:26:10.138Z,10.93
2022-10-12T10:28:45.208Z,9.77
2022-10-12T10:31:16.154Z,8.95
2022-10-12T10:33:44.091Z,7.60
2022-10-12T10:36:26.252Z,9.35
2022-10-12T10:39:06.284Z,8.65
2022-10-12T10:41:39.555Z,8.70
2022-10-12T10:44:24.265Z,10.23
2022-10-12T10:46:52.122Z,7.82
2022-10-12T10:49:36.520Z,10.90
2022-10-12T10:52:05.426Z,7.22
2022-10-12T10:54:34.649Z,9.15
2022-10-12T10:57:10.024Z,11.27
2022-10-12T10:59:45.368Z,12.57
2022-10-12T11:02:23.681Z,6.55
2022-10-12T11:04:56.825Z,11.77
2022-10-12T11:07:41.271Z,10.50
2022-10-12T11:10:29.642Z,9.63
2022-10-12T11:13:20.050Z,7.53
2022-10-12T11:15:52.768Z,12.30
2022-10-12T11:18:22.584Z,12.57
2022-10-12T11:20:56.122Z,7.85
2022-10-12T11:23:38.058Z,12.75
2022-10-12T11:26:27.490Z,8.65
2022-10-12T11:28:56.872Z,8.57
2022-10-12T11:31:31.238Z,7.65
2022-10-12T11:34:03.191Z,10.30
2022-10-12T11:36:32.549Z,9.82
2022-10-12T11:39:07.108Z,11.18
2022-10-12T11:42:03.305Z,12.98
2022-10-12T11:44:44.624Z,7.80
2022-10-12T11:47:30.023Z,9.90
2022-10-12T11:50:25.222Z,11.77
2022-10-12T11:52:54.833Z,8.07
2022-10-12T11:55:27.055Z,8.07
2022-10-12T11:57:56.704Z,8.18
2022-10-12T12:00:35.542Z,12.32
2022-10-12T12:03:20.745Z,10.15
2022-10-12T12:05:47.934Z,9.55
2022-10-12T12:08:22.819Z,7.78
2022-10-12T12:11:02.427Z,7.75
2022-10-12T12:13:29.105Z,10.07
2022-10-12T12:15:55.438Z,8.82
2022-10-12T12:18:28.086Z,8.43
2022-10-12T12:21:07.341Z,7.65
2022-10-12T12:24:00.144Z,10.95
2022-10-12T12:26:30.247Z,8.32
2022-10-12T12:29:27.241Z,9.88
2022-10-12T12:31:56.399Z,10.38
2022-10-12T12:34:23.372Z,7.70
2022-10-12T12:36:51.565Z,10.82
2022-10-12T12:39:32.352Z,9.90
2022-10-12T12:42:02.734Z,10.57
2022-10-12T12:44:37.522Z,7.72
2022-10-12T12:50:23.685Z,8.63
2022-10-12T12:52:50.681Z,7.70
2022-10-12T12:55:29.672Z,7.88
2022-10-12T12:58:12.036Z,8.35
2022-10-12T13:00:53.519Z,7.53
2022-10-12T13:03:58.057Z,11.48
2022-10-12T13:06:30.235Z,7.20
2022-10-12T13:09:44.264Z,8.27
2022-10-12T13:12:32.533Z,11.27
2022-10-12T13:15:06.642Z,8.63
2022-10-12T13:17:45.555Z,6.47
2022-10-12T13:20:15.514Z,9.93
2022-10-12T13:22:44.465Z,7.28
2022-10-12T13:25:22.142Z,9.43
2022-10-12T13:27:50.239Z,7.07
2022-10-12T13:30:19.477Z,9.63
2022-10-12T13:33:11.244Z,10.35
2022-10-12T13:35:47.247Z,8.10
2022-10-12T13:38:13.699Z,10.80
2022-10-12T13:41:02.334Z,9.70
2022-10-12T13:43:33.889Z,7.43
2022-10-12T13:46:01.214Z,8.20
2022-10-12T13:48:53.784Z,9.82
2022-10-12T13:51:27.154Z,9.35
2022-10-12T13:53:54.129Z,9.63
2022-10-12T13:56:24.281Z,9.35
2022-10-12T13:58:56.705Z,10.45
2022-10-12T14:01:23.166Z,9.35
2022-10-12T14:03:49.859Z,9.93
2022-10-12T14:06:33.100Z,10.02
2022-10-12T14:09:08.957Z,10.07
2022-10-12T14:11:35.962Z,8.63
2022-10-12T14:14:03.122Z,10.20
2022-10-12T14:16:29.770Z,10.18
2022-10-12T14:19:16.107Z,10.65
2022-10-12T14:21:47.093Z,6.55
2022-10-12T14:24:19.187Z,10.38
2022-10-12T14:26:54.045Z,9.43
2022-10-12T14:29:29.042Z,10.70
2022-10-12T14:31:58.063Z,10.93
2022-10-12T14:34:27.406Z,7.47
2022-10-12T14:37:05.956Z,8.95
2022-10-12T14:39:33.186Z,8.98
2022-10-12T14:42:04.753Z,7.53
2022-10-12T14:44:42.909Z,9.32
2022-10-12T14:47:24.563Z,7.22
2022-10-12T14:49:53.600Z,9.60
2022-10-12T14:52:36.894Z,6.97
2022-10-12T14:55:03.810Z,10.13
2022-10-12T14:57:31.269Z,9.77
2022-10-12T14:59:58.601Z,10.90
2022-10-12T15:02:29.445Z,9.57
2022-10-12T15:04:56.411Z,7.05
2022-10-12T15:07:26.263Z,10.95
2022-10-12T15:09:53.222Z,9.95
2022-10-12T15:12:22.666Z,11.55
2022-10-12T15:14:50.549Z,8.15
2022-10-12T15:17:19.492Z,8.10
2022-10-12T15:19:47.796Z,11.05
2022-10-12T15:22:22.872Z,9.40
2022-10-12T15:24:51.113Z,8.63
2022-10-12T15:27:17.566Z,9.52
2022-10-12T15:29:44.092Z,7.55
2022-10-12T15:32:12.321Z,11.57
2022-10-12T15:34:38.932Z,7.93
2022-10-12T15:37:09.111Z,9.85
2022-10-12T15:39:36.121Z,11.32
2022-10-12T15:42:02.810Z,11.23
2022-10-12T15:44:29.351Z,9.55
2022-10-12T15:46:55.776Z,9.15
2022-10-12T15:49:25.518Z,8.15
2022-10-12T15:51:54.708Z,8.57
2022-10-12T15:54:21.644Z,11.60
2022-10-12T15:56:48.145Z,10.93
2022-10-12T15:59:14.606Z,12.68
2022-10-12T16:01:43.637Z,14.10
2022-10-12T16:04:14.710Z,14.95
2022-10-12T16:06:41.379Z,9.88
2022-10-12T16:09:07.970Z,11.73
2022-10-12T16:11:34.411Z,9.98
2022-10-12T16:14:01.751Z,11.85
2022-10-12T16:16:29.939Z,12.30
2022-10-12T16:18:56.329Z,11.43
2022-10-12T16:21:22.771Z,7.45
2022-10-12T16:23:49.288Z,11.75
2022-10-12T16:26:15.873Z,12.35
2022-10-12T16:28:42.476Z,11.98
2022-10-12T16:31:15.691Z,9.07
2022-10-12T16:33:42.395Z,11.23
2022-10-12T16:36:14.367Z,9.23
2022-10-12T16:38:41.585Z,8.38
2022-10-12T16:41:13.111Z,10.48
2022-10-12T16:43:39.934Z,12.30
2022-10-12T16:46:07.173Z,13.55
2022-10-12T16:48:33.647Z,11.00
2022-10-12T16:51:00.110Z,11.25
2022-10-12T16:53:26.814Z,13.43
2022-10-12T16:55:53.197Z,14.65
2022-10-12T16:58:19.678Z,12.13
2022-10-12T17:00:46.255Z,11.80
2022-10-12T17:03:13.962Z,12.38
2022-10-12T17:05:41.956Z,11.63
2022-10-12T17:08:12.515Z,11.17
2022-10-12T17:10:45.004Z,11.70
2022-10-12T17:13:13.432Z,13.40
2022-10-12T17:15:41.342Z,14.37
2022-10-12T17:18:07.998Z,13.87
2022-10-12T17:20:35.666Z,14.57
2022-10-12T17:23:02.109Z,16.47
2022-10-12T17:25:28.894Z,22.30
2022-10-12T17:27:55.290Z,16.43
2022-10-12T17:30:21.826Z,12.57
2022-10-12T17:32:48.265Z,16.70
2022-10-12T17:35:14.799Z,25.27
2022-10-12T17:37:41.202Z,46.87
2022-10-12T17:40:10.525Z,47.73
2022-10-12T17:42:37.034Z,26.73
2022-10-12T17:45:03.942Z,13.10
2022-10-12T17:47:30.344Z,23.23
2022-10-12T17:49:56.696Z,17.17
2022-10-12T17:52:23.166Z,8.87
2022-10-12T17:54:49.533Z,12.73
2022-10-12T17:57:16.452Z,12.63
2022-10-12T17:59:43.015Z,15.93
2022-10-12T18:02:10.185Z,13.33
2022-10-12T18:04:36.626Z,10.10
2022-10-12T18:07:03.166Z,14.77
2022-10-12T18:09:30.850Z,16.43
2022-10-12T18:11:57.248Z,17.43
2022-10-12T18:14:24.604Z,18.37
2022-10-12T18:16:51.650Z,13.70
2022-10-12T18:19:18.077Z,16.03
2022-10-12T18:21:44.646Z,10.40
2022-10-12T18:24:16.331Z,14.30
2022-10-12T18:26:45.386Z,14.13
2022-10-12T18:29:14.981Z,15.73
2022-10-12T18:31:41.437Z,16.40
2022-10-12T18:34:07.991Z,16.03
2022-10-12T18:36:34.521Z,23.27
2022-10-12T18:39:02.546Z,19.30
2022-10-12T18:41:29.328Z,28.20
2022-10-12T18:43:57.939Z,28.83
2022-10-12T18:46:27.380Z,28.60
2022-10-12T18:48:54.045Z,23.03
2022-10-12T18:51:20.525Z,25.40
2022-10-12T18:53:47.733Z,16.63
2022-10-12T18:56:14.186Z,17.20
2022-10-12T18:58:41.860Z,16.50
2022-10-12T19:01:14.514Z,16.37
2022-10-12T19:03:41.928Z,11.37
2022-10-12T19:06:12.121Z,14.57
2022-10-12T19:08:38.819Z,18.73
2022-10-12T19:11:08.070Z,15.50
2022-10-12T19:13:36.312Z,16.60
2022-10-12T19:16:06.613Z,13.87
2022-10-12T19:18:33.414Z,16.70
2022-10-12T19:21:05.022Z,14.77
2022-10-12T19:23:31.987Z,14.03
2022-10-12T19:26:03.236Z,15.77
2022-10-12T19:28:29.810Z,16.77
2022-10-12T19:30:56.320Z,16.20
2022-10-12T19:33:22.705Z,21.20
2022-10-12T19:35:49.164Z,17.17
2022-10-12T19:38:15.612Z,18.30
2022-10-12T19:40:43.155Z,16.27
2022-10-12T19:43:09.531Z,14.93
2022-10-12T19:45:40.686Z,22.20
2022-10-12T19:48:07.837Z,15.57
2022-10-12T19:50:35.017Z,15.40
2022-10-12T19:53:01.777Z,15.87
2022-10-12T19:55:32.785Z,16.10
2022-10-12T19:58:00.809Z,19.13
2022-10-12T20:00:27.694Z,15.87
2022-10-12T20:02:54.253Z,14.23
2022-10-12T20:05:20.727Z,14.90
2022-10-12T20:07:47.186Z,20.33
2022-10-12T20:10:13.691Z,13.40
2022-10-12T20:12:40.232Z,17.40
2022-10-12T20:15:07.728Z,15.13
2022-10-12T20:17:34.166Z,18.17
2022-10-12T20:20:00.569Z,18.27
2022-10-12T20:22:26.980Z,18.50
2022-10-12T20:24:53.441Z,17.43
2022-10-12T20:27:20.150Z,18.27
2022-10-12T20:29:46.654Z,17.37
2022-10-12T20:32:13.155Z,18.43
2022-10-12T20:34:39.763Z,16.27
2022-10-12T20:37:06.255Z,21.00
2022-10-12T20:39:33.849Z,18.30
2022-10-12T20:42:00.453Z,19.57
2022-10-12T20:44:26.961Z,18.93
2022-10-12T20:46:55.018Z,19.07
2022-10-12T20:49:21.841Z,16.97
2022-10-12T20:51:48.249Z,20.57
2022-10-12T20:54:18.109Z,17.93
2022-10-12T20:56:47.432Z,21.77
2022-10-12T20:59:13.811Z,19.03
2022-10-12T21:01:40.341Z,17.50
2022-10-12T21:04:06.805Z,18.67
2022-10-12T21:06:34.640Z,19.27
2022-10-12T21:09:01.006Z,20.50
2022-10-12T21:11:27.643Z,17.27
2022-10-12T21:13:54.495Z,19.57
2022-10-12T21:16:20.990Z,21.43
2022-10-12T21:18:47.879Z,16.53
2022-10-12T21:21:16.871Z,13.40
2022-10-12T21:23:58.058Z,17.30
2022-10-12T21:26:27.081Z,19.13
2022-10-12T21:28:54.170Z,15.60
2022-10-12T21:31:21.520Z,18.57
2022-10-12T21:33:48.005Z,18.87
2022-10-12T21:36:22.994Z,20.67
2022-10-12T21:38:50.234Z,19.87
2022-10-12T21:41:19.500Z,17.70
2022-10-12T21:43:46.506Z,19.60
2022-10-12T21:46:15.557Z,17.60
2022-10-12T21:48:42.429Z,18.53
2022-10-12T21:51:09.477Z,19.33
2022-10-12T21:53:37.306Z,18.10
2022-10-12T21:56:23.759Z,16.00
2022-10-12T21:58:51.958Z,17.93
2022-10-12T22:01:21.903Z,21.60
2022-10-12T22:03:52.908Z,17.67
2022-10-12T22:06:21.216Z,18.70
2022-10-12T22:08:58.121Z,17.80
2022-10-12T22:11:27.103Z,16.60
2022-10-12T22:13:59.222Z,16.53
2022-10-12T22:16:27.984Z,17.07
2022-10-12T22:18:57.349Z,18.07
2022-10-12T22:21:30.538Z,15.07
2022-10-12T22:23:57.065Z,16.17
2022-10-12T22:26:23.890Z,15.90
2022-10-12T22:28:52.968Z,13.93
2022-10-12T22:31:20.802Z,15.00
2022-10-12T22:33:47.548Z,13.73
2022-10-12T22:36:15.210Z,17.23
2022-10-12T22:38:42.581Z,16.37
2022-10-12T22:41:22.807Z,13.57
2022-10-12T22:43:54.301Z,12.83
2022-10-12T22:46:23.944Z,16.17
2022-10-12T22:48:50.522Z,12.40
2022-10-12T22:51:25.898Z,12.10
2022-10-12T22:53:52.378Z,9.87
2022-10-12T22:56:19.009Z,11.73
2022-10-12T22:58:48.250Z,9.60
2022-10-12T23:01:17.161Z,12.10
2022-10-12T23:03:43.654Z,12.10
2022-10-12T23:06:11.889Z,16.27
2022-10-12T23:08:38.686Z,11.70
2022-10-12T23:11:07.926Z,13.20
2022-10-12T23:13:35.866Z,15.53
2022-10-12T23:16:07.497Z,20.67
2022-10-12T23:18:34.130Z,20.60
2022-10-12T23:21:04.941Z,14.37
2022-10-12T23:23:33.582Z,17.00
2022-10-12T23:26:15.342Z,14.77
2022-10-12T23:28:42.460Z,17.27
2022-10-12T23:31:17.401Z,18.73
2022-10-12T23:33:44.320Z,14.27
2022-10-12T23:36:13.424Z,16.27
2022-10-12T23:38:41.267Z,17.40
2022-10-12T23:41:08.307Z,12.87
2022-10-12T23:43:35.534Z,15.37
2022-10-12T23:46:04.740Z,13.13
2022-10-12T23:48:31.961Z,16.00
2022-10-12T23:50:58.374Z,15.67
2022-10-12T23:53:25.474Z,17.23
2022-10-12T23:55:52.648Z,23.10
2022-10-12T23:58:19.909Z,18.40
